Time;durP1;ratioP1;P1;durP2;ratioP2;P2;SDS_P1;SDS_P2;PMS_P1;PMS_P2;Temp;Humidity;BMP_temperature;BMP_pressure;BME280_temperature;BME280_humidity;BME280_pressure;Samples;Min_cycle;Max_cycle;Signal;HPM_P1;HPM_P2
2023/06/10 00:00:15;;;;;;;7.32;6.63;;;;;;;11.49;100.00;92706.97;2567052;23;20000;-83
2023/06/10 00:01:17;;;;;;;7.35;6.65;;;;;;;11.60;100.00;92699.38;2556686;23;20043;-81
2023/06/10 00:02:21;;;;;;;8.45;6.88;;;;;;;11.58;100.00;92704.38;2555091;23;20000;-82
2023/06/10 00:03:27;;;;;;;10.52;7.00;;;;;;;11.52;100.00;92704.19;2567984;22;20027;-82
2023/06/10 00:04:28;;;;;;;8.30;6.80;;;;;;;11.39;100.00;92703.47;2566552;23;20619;-82
2023/06/10 00:05:31;;;;;;;8.55;7.28;;;;;;;11.35;100.00;92703.56;2578620;22;20062;-84
2023/06/10 00:06:35;;;;;;;9.98;6.93;;;;;;;11.31;100.00;92712.88;2590832;22;20003;-84
2023/06/10 00:07:37;;;;;;;7.50;6.70;;;;;;;11.29;100.00;92705.31;2591461;22;20086;-83
2023/06/10 00:08:39;;;;;;;8.73;7.35;;;;;;;11.25;100.00;92703.91;2577832;23;20454;-82
2023/06/10 00:09:40;;;;;;;8.55;6.60;;;;;;;11.25;100.00;92706.59;2565875;22;20185;-83
2023/06/10 00:10:46;;;;;;;8.20;7.40;;;;;;;11.20;100.00;92705.22;2565413;23;20104;-83
2023/06/10 00:11:55;;;;;;;8.02;7.22;;;;;;;11.17;100.00;92705.31;2568133;22;20367;-84
2023/06/10 00:12:59;;;;;;;10.15;7.43;;;;;;;11.22;100.00;92705.50;2580202;22;20127;-86
2023/06/10 00:14:05;;;;;;;10.43;7.40;;;;;;;11.14;100.00;92703.47;2568003;23;20095;-82
2023/06/10 00:15:12;;;;;;;9.15;7.63;;;;;;;11.18;100.00;92699.53;2568747;22;20012;-85
2023/06/10 00:16:18;;;;;;;9.82;7.43;;;;;;;11.23;100.00;92703.59;2592973;22;20007;-83
2023/06/10 00:17:19;;;;;;;10.48;7.03;;;;;;;11.27;100.00;92698.88;2591028;22;20014;-85
2023/06/10 00:18:21;;;;;;;8.18;7.25;;;;;;;11.17;100.00;92698.03;2565619;23;20070;-83
2023/06/10 00:19:25;;;;;;;7.80;6.82;;;;;;;11.20;100.00;92699.84;2565938;22;20400;-81
2023/06/10 00:20:28;;;;;;;11.52;7.78;;;;;;;11.08;100.00;92698.69;2566091;23;20004;-81
2023/06/10 00:21:40;;;;;;;8.95;7.47;;;;;;;11.09;100.00;92705.50;2566114;22;20428;-84
2023/06/10 00:22:45;;;;;;;8.63;7.70;;;;;;;11.18;100.00;92699.53;2580662;22;20305;-84
2023/06/10 00:23:48;;;;;;;11.00;7.55;;;;;;;11.04;100.00;92700.72;2566400;23;20023;-81
2023/06/10 00:24:50;;;;;;;8.93;7.18;;;;;;;10.98;100.00;92710.44;2566024;22;20479;-84
2023/06/10 00:25:52;;;;;;;10.15;7.53;;;;;;;11.03;100.00;92709.91;2565741;23;20031;-86
2023/06/10 00:26:53;;;;;;;9.63;7.75;;;;;;;11.12;100.00;92703.19;2565758;22;20012;-83
2023/06/10 00:27:55;;;;;;;11.15;8.25;;;;;;;11.02;100.00;92700.41;2565296;23;20356;-82
2023/06/10 00:28:56;;;;;;;8.82;7.80;;;;;;;10.98;100.00;92707.03;2578516;22;20538;-83
2023/06/10 00:29:57;;;;;;;9.20;8.02;;;;;;;11.02;100.00;92716.44;2578184;23;20011;-84
2023/06/10 00:31:00;;;;;;;10.85;7.57;;;;;;;11.03;100.00;92709.91;2565288;23;20008;-84
2023/06/10 00:32:01;;;;;;;9.23;8.07;;;;;;;11.01;100.00;92712.25;2566449;22;20439;-86
2023/06/10 00:33:02;;;;;;;9.52;8.43;;;;;;;10.94;100.00;92706.38;2577942;22;20083;-84
2023/06/10 00:34:03;;;;;;;9.55;8.43;;;;;;;10.96;100.00;92715.47;2565386;23;20020;-82
2023/06/10 00:35:05;;;;;;;8.93;8.02;;;;;;;11.02;100.00;92707.69;2565418;23;20004;-83
2023/06/10 00:36:07;;;;;;;11.07;8.35;;;;;;;10.94;100.00;92703.72;2553646;23;20012;-84
2023/06/10 00:37:08;;;;;;;12.48;8.68;;;;;;;10.85;100.00;92707.03;2553411;23;20440;-86
2023/06/10 00:38:09;;;;;;;12.20;8.40;;;;;;;10.82;100.00;92708.63;2565422;22;20008;-82
2023/06/10 00:39:11;;;;;;;9.73;8.13;;;;;;;10.83;100.00;92704.75;2577697;23;20471;-82
2023/06/10 00:40:12;;;;;;;10.30;8.10;;;;;;;10.87;100.00;92707.34;2590042;22;20000;-85
2023/06/10 00:41:14;;;;;;;13.30;8.30;;;;;;;10.86;100.00;92702.41;2577421;22;20008;-82
2023/06/10 00:42:15;;;;;;;9.90;8.88;;;;;;;10.88;100.00;92708.06;2578326;22;20027;-85
2023/06/10 00:43:16;;;;;;;9.23;8.27;;;;;;;10.84;100.00;92702.81;2577986;22;20439;-82
2023/06/10 00:44:17;;;;;;;11.35;8.80;;;;;;;10.82;100.00;92707.88;2578050;23;20015;-84
2023/06/10 00:45:18;;;;;;;11.38;8.55;;;;;;;10.72;100.00;92696.31;2565801;23;20001;-83
2023/06/10 00:46:21;;;;;;;13.50;8.93;;;;;;;10.84;100.00;92694.81;2552925;23;20805;-84
2023/06/10 00:47:22;;;;;;;9.32;8.30;;;;;;;10.89;100.00;92694.31;2566315;22;20047;-85
2023/06/10 00:48:24;;;;;;;11.85;8.88;;;;;;;10.88;100.00;92692.03;2578067;22;20035;-84
2023/06/10 00:49:26;;;;;;;10.20;9.20;;;;;;;10.72;100.00;92693.63;2590502;22;20034;-83
2023/06/10 00:50:27;;;;;;;10.40;9.05;;;;;;;10.67;100.00;92694.19;2565539;23;20078;-84
2023/06/10 00:51:28;;;;;;;10.63;9.18;;;;;;;10.64;100.00;92688.94;2552982;23;20480;-85
2023/06/10 00:52:30;;;;;;;9.70;8.70;;;;;;;10.70;100.00;92695.22;2565765;23;20004;-83
2023/06/10 00:53:32;;;;;;;11.25;8.82;;;;;;;10.63;100.00;92692.78;2565333;23;20432;-81
2023/06/10 00:54:33;;;;;;;10.43;9.30;;;;;;;10.70;100.00;92692.56;2553662;23;20015;-85
2023/06/10 00:55:35;;;;;;;9.57;8.68;;;;;;;10.73;100.00;92695.13;2553311;23;20013;-83
2023/06/10 00:56:38;;;;;;;11.55;8.95;;;;;;;10.76;100.00;92696.22;2554199;23;20040;-82
2023/06/10 00:57:39;;;;;;;10.50;9.40;;;;;;;10.64;100.00;92692.34;2565108;23;20455;-83
2023/06/10 00:58:40;;;;;;;11.73;9.65;;;;;;;10.71;100.00;92694.06;2565565;23;20011;-81
2023/06/10 00:59:43;;;;;;;12.00;9.73;;;;;;;10.67;100.00;92691.50;2565338;23;20416;-84
2023/06/10 01:00:45;;;;;;;11.30;9.02;;;;;;;10.75;100.00;92695.44;2566351;22;20008;-83
2023/06/10 01:01:47;;;;;;;11.65;8.80;;;;;;;10.61;100.00;92698.53;2590206;22;20006;-85
2023/06/10 01:02:49;;;;;;;12.20;9.65;;;;;;;10.59;100.00;92698.97;2578023;22;20091;-84
2023/06/10 01:03:51;;;;;;;20.67;9.98;;;;;;;10.57;100.00;92695.22;2565747;23;20058;-82
2023/06/10 01:04:52;;;;;;;10.02;8.77;;;;;;;10.59;100.00;92695.56;2565344;22;20098;-84
2023/06/10 01:06:01;;;;;;;13.48;9.90;;;;;;;10.52;100.00;92699.16;2578211;22;20043;-80
2023/06/10 01:07:27;;;;;;;9.48;8.57;;;;;;;10.57;100.00;92695.22;2567352;23;20019;-82
2023/06/10 01:09:02;;;;;;;12.95;9.38;;;;;;;10.86;100.00;92697.81;2575260;22;20019;-80
2023/06/10 01:10:26;;;;;;;12.73;10.07;;;;;;;10.69;100.00;92696.41;2572195;23;20157;-80
2023/06/10 01:11:34;;;;;;;12.10;9.40;;;;;;;10.63;100.00;92704.22;2563157;23;20462;-83
2023/06/10 01:13:14;;;;;;;12.40;9.95;;;;;;;10.65;100.00;92706.47;2556178;23;20008;-82
2023/06/10 01:14:16;;;;;;;16.58;10.07;;;;;;;10.60;100.00;92705.06;2511786;23;20037;-84
2023/06/10 01:15:18;;;;;;;13.13;10.25;;;;;;;10.63;100.00;92698.13;2516535;23;20051;-83
2023/06/10 01:16:22;;;;;;;11.30;10.10;;;;;;;10.66;100.00;92697.25;2539836;22;20009;-84
2023/06/10 01:17:23;;;;;;;11.55;9.90;;;;;;;10.67;100.00;92699.53;2591223;22;20698;-81
2023/06/10 01:18:31;;;;;;;11.80;10.60;;;;;;;10.61;100.00;92703.88;2590635;22;20091;-79
2023/06/10 01:19:33;;;;;;;12.10;9.88;;;;;;;10.59;100.00;92698.22;2591122;22;20092;-84
2023/06/10 01:20:39;;;;;;;16.38;10.25;;;;;;;10.54;100.00;92696.81;2578138;23;20007;-82
2023/06/10 01:21:48;;;;;;;12.25;10.30;;;;;;;10.45;100.00;92698.63;2567342;22;20008;-83
2023/06/10 01:22:50;;;;;;;13.93;10.25;;;;;;;10.66;100.00;92695.31;2566599;23;20004;-83
2023/06/10 01:23:55;;;;;;;12.75;10.35;;;;;;;10.83;100.00;92687.97;2578526;22;20518;-82
2023/06/10 01:25:03;;;;;;;11.27;10.05;;;;;;;10.61;100.00;92697.78;2590364;22;20007;-81
2023/06/10 01:26:11;;;;;;;18.63;11.00;;;;;;;10.53;100.00;92702.56;2566961;23;20111;-83
2023/06/10 01:27:15;;;;;;;13.55;11.00;;;;;;;10.60;100.00;92697.03;2579294;22;20027;-84
2023/06/10 01:28:53;;;;;;;13.05;10.68;;;;;;;10.43;100.00;92692.94;2578432;22;20004;-81
2023/06/10 01:30:03;;;;;;;13.05;10.35;;;;;;;10.44;100.00;92703.19;2585630;22;20023;-83
2023/06/10 01:31:33;;;;;;;13.50;10.20;;;;;;;10.47;100.00;92693.59;2567241;23;20055;-83
2023/06/10 01:32:40;;;;;;;13.70;10.88;;;;;;;10.30;100.00;92690.25;2590409;22;20043;-82
2023/06/10 01:33:48;;;;;;;12.82;10.82;;;;;;;10.41;100.00;92698.72;2578468;23;20143;-82
2023/06/10 01:34:50;;;;;;;16.55;10.70;;;;;;;10.36;100.00;92693.91;2568266;22;20066;-82
2023/06/10 01:35:54;;;;;;;12.45;10.23;;;;;;;10.33;100.00;92700.09;2578028;22;20331;-82
2023/06/10 01:36:59;;;;;;;17.27;11.18;;;;;;;10.31;100.00;92703.16;2578591;22;20408;-82
2023/06/10 01:38:05;;;;;;;12.13;10.57;;;;;;;10.25;100.00;92704.88;2566997;23;20009;-84
2023/06/10 01:39:08;;;;;;;12.43;10.63;;;;;;;10.32;100.00;92699.34;2566127;23;20078;-83
2023/06/10 01:40:11;;;;;;;13.75;10.48;;;;;;;10.28;100.00;92701.38;2566680;23;20011;-85
2023/06/10 01:41:21;;;;;;;15.45;10.85;;;;;;;10.23;100.00;92701.13;2566601;23;20008;-82
2023/06/10 01:42:29;;;;;;;12.25;10.73;;;;;;;10.24;100.00;92699.94;2579516;23;20051;-81
2023/06/10 01:43:38;;;;;;;12.93;10.23;;;;;;;10.26;100.00;92703.69;2578789;23;20023;-81
2023/06/10 01:44:44;;;;;;;15.02;11.85;;;;;;;10.26;100.00;92705.63;2555250;23;20001;-81
2023/06/10 01:45:49;;;;;;;12.80;11.38;;;;;;;10.24;100.00;92700.72;2556373;23;20012;-82
2023/06/10 01:46:55;;;;;;;15.35;11.55;;;;;;;10.20;100.00;92702.69;2567167;23;20004;-81
2023/06/10 01:47:57;;;;;;;14.60;11.13;;;;;;;10.17;100.00;92705.47;2567144;23;20047;-84
2023/06/10 01:48:58;;;;;;;14.13;11.48;;;;;;;10.15;100.00;92710.47;2554186;23;20226;-83
2023/06/10 01:50:03;;;;;;;13.40;11.82;;;;;;;10.19;100.00;92703.13;2553534;23;20023;-84
2023/06/10 01:51:10;;;;;;;15.45;11.48;;;;;;;10.22;100.00;92702.25;2566659;23;20122;-82
2023/06/10 01:52:15;;;;;;;13.35;11.10;;;;;;;10.17;100.00;92702.78;2579126;23;20023;-82
2023/06/10 01:53:19;;;;;;;13.38;11.35;;;;;;;10.17;100.00;92698.19;2566893;23;20087;-83
2023/06/10 01:54:24;;;;;;;14.20;12.30;;;;;;;10.13;100.00;92707.47;2554966;23;20009;-79
2023/06/10 01:55:31;;;;;;;15.40;11.63;;;;;;;10.12;100.00;92706.72;2554086;23;20063;-81
2023/06/10 01:56:37;;;;;;;14.77;11.38;;;;;;;10.09;100.00;92699.53;2556026;23;20009;-82
2023/06/10 01:57:45;;;;;;;15.20;11.00;;;;;;;10.05;100.00;92701.56;2555004;23;20161;-84
2023/06/10 01:58:54;;;;;;;19.77;12.48;;;;;;;10.05;100.00;92705.00;2554786;23;20039;-83
2023/06/10 02:00:04;;;;;;;14.90;11.70;;;;;;;10.04;100.00;92700.81;2543611;23;20006;-80
2023/06/10 02:01:11;;;;;;;14.32;11.73;;;;;;;9.97;100.00;92695.69;2543215;23;20467;-82
2023/06/10 02:02:17;;;;;;;13.30;11.93;;;;;;;10.02;100.00;92705.84;2555421;23;20092;-84
2023/06/10 02:03:22;;;;;;;16.20;12.30;;;;;;;10.01;100.00;92704.34;2578559;23;20004;-82
2023/06/10 02:04:26;;;;;;;16.88;12.43;;;;;;;9.99;100.00;92701.34;2565686;23;20074;-81
2023/06/10 02:05:36;;;;;;;14.65;12.48;;;;;;;10.07;100.00;92701.91;2567977;22;20279;-82
2023/06/10 02:06:40;;;;;;;15.55;11.88;;;;;;;10.02;100.00;92702.44;2566414;23;20001;-81
2023/06/10 02:07:42;;;;;;;14.38;11.50;;;;;;;9.99;100.00;92706.69;2555452;23;20008;-83
2023/06/10 02:08:49;;;;;;;16.15;12.68;;;;;;;10.00;100.00;92702.09;2566792;23;20031;-85
2023/06/10 02:09:57;;;;;;;14.63;12.13;;;;;;;9.98;100.00;92709.78;2567001;23;20004;-83
2023/06/10 02:11:07;;;;;;;14.80;12.13;;;;;;;9.96;100.00;92706.75;2554248;23;20101;-80
2023/06/10 02:12:11;;;;;;;15.32;12.90;;;;;;;10.03;100.00;92707.34;2569604;22;20009;-83
2023/06/10 02:13:16;;;;;;;14.63;12.20;;;;;;;10.06;100.00;92709.16;2566020;23;20004;-84
2023/06/10 02:14:24;;;;;;;15.95;11.85;;;;;;;10.04;100.00;92703.50;2555790;23;20039;-80
2023/06/10 02:15:33;;;;;;;18.40;12.73;;;;;;;9.95;100.00;92707.94;2555332;23;20072;-81
2023/06/10 02:16:40;;;;;;;14.32;12.13;;;;;;;9.95;100.00;92716.69;2556724;23;20009;-82
2023/06/10 02:17:54;;;;;;;14.52;12.07;;;;;;;9.91;100.00;92710.69;2580083;22;20006;-82
2023/06/10 02:19:00;;;;;;;16.55;12.40;;;;;;;9.98;100.00;92707.84;2566189;23;20004;-80
2023/06/10 02:22:04;;;;;;;;;;;;;;;9.89;100.00;92707.72;2108824;27;21475;-76
2023/06/10 02:23:23;;;;;;;27.98;13.63;;;;;;;9.74;100.00;92706.56;2081000;28;19920;-78
2023/06/10 02:24:35;;;;;;;17.17;12.75;;;;;;;9.73;100.00;92713.06;2079003;28;20025;-79
2023/06/10 02:25:47;;;;;;;18.58;13.27;;;;;;;9.77;100.00;92708.41;2077004;28;20046;-77
2023/06/10 02:26:55;;;;;;;16.33;13.20;;;;;;;9.77;100.00;92711.81;2078120;28;20044;-76
2023/06/10 02:28:03;;;;;;;19.15;14.15;;;;;;;9.70;100.00;92709.34;2071589;28;20026;-76
2023/06/10 02:34:50;;;;;;;;;;;;;;;;;;;;;
2023/06/10 02:43:11;;;;;;;20.55;13.93;;;;;;;9.59;100.00;92711.50;2028915;29;20036;-78
2023/06/10 02:44:22;;;;;;;18.27;13.80;;;;;;;9.65;100.00;92714.41;2025618;28;20130;-76
2023/06/10 02:45:28;;;;;;;21.10;15.13;;;;;;;9.55;100.00;92722.25;2050400;28;20533;-76
2023/06/10 02:46:36;;;;;;;19.38;13.93;;;;;;;9.63;100.00;92714.84;2046763;28;20075;-77
2023/06/10 02:47:45;;;;;;;20.98;14.38;;;;;;;9.59;100.00;92720.25;2062648;28;20038;-75
2023/06/10 02:48:54;;;;;;;18.73;14.30;;;;;;;9.67;100.00;92715.50;2061030;28;20702;-76
2023/06/10 02:50:03;;;;;;;20.45;14.98;;;;;;;9.69;100.00;92718.50;2061468;28;20516;-75
2023/06/10 02:52:18;;;;;;;;;;;;;;;;;;;;;
2023/06/10 02:53:48;;;;;;;18.92;14.13;;;;;;;9.53;100.00;92729.94;2084029;28;20069;-75
2023/06/10 02:55:13;;;;;;;18.58;14.32;;;;;;;9.56;100.00;92729.09;2093497;28;20032;-75
2023/06/10 02:56:27;;;;;;;17.45;14.30;;;;;;;9.53;100.00;92724.63;2080030;28;20029;-75
2023/06/10 02:57:37;;;;;;;17.23;14.52;;;;;;;9.60;100.00;92718.34;2077628;28;20791;-77
2023/06/10 02:59:22;;;;;;;19.33;15.02;;;;;;;9.58;100.00;92721.44;2072119;28;20120;-75
2023/06/10 03:07:12;;;;;;;20.08;15.30;;;;;;;9.51;100.00;92729.59;2111449;22;20057;-82
2023/06/10 03:08:17;;;;;;;22.90;15.23;;;;;;;9.48;100.00;92722.44;2078679;28;20114;-82
2023/06/10 03:09:24;;;;;;;20.27;15.40;;;;;;;9.54;100.00;92728.03;2080548;28;20064;-82
2023/06/10 03:10:32;;;;;;;21.60;15.45;;;;;;;9.42;100.00;92723.34;2086582;28;20478;-80
2023/06/10 03:11:41;;;;;;;17.40;14.20;;;;;;;9.40;100.00;92731.78;2071254;28;20156;-82
2023/06/10 03:12:50;;;;;;;19.77;15.55;;;;;;;9.36;100.00;92723.13;2071411;28;20046;-83
2023/06/10 03:13:55;;;;;;;19.08;15.65;;;;;;;9.42;100.00;92732.09;2080253;28;20038;-79
2023/06/10 03:15:03;;;;;;;20.70;15.55;;;;;;;9.41;100.00;92722.63;2087371;28;20052;-82
2023/06/10 03:16:09;;;;;;;20.08;15.65;;;;;;;9.34;100.00;92720.09;2080240;28;20124;-80
2023/06/10 03:17:13;;;;;;;20.65;15.75;;;;;;;9.34;100.00;92722.78;2078897;28;20029;-81
2023/06/10 03:18:20;;;;;;;20.08;15.95;;;;;;;9.36;100.00;92731.13;2079055;28;20112;-82
2023/06/10 03:19:29;;;;;;;20.63;15.07;;;;;;;9.26;100.00;92726.75;2073917;28;20363;-80
2023/06/10 03:20:36;;;;;;;16.45;14.40;;;;;;;9.26;100.00;92727.53;2076312;28;20045;-81
2023/06/10 03:21:44;;;;;;;21.23;15.65;;;;;;;9.31;100.00;92732.38;2072965;28;20589;-83
2023/06/10 03:22:51;;;;;;;22.50;15.95;;;;;;;9.32;100.00;92731.19;2075906;28;20028;-83
2023/06/10 03:24:01;;;;;;;17.73;14.88;;;;;;;9.30;100.00;92732.78;2065611;28;20030;-82
2023/06/10 03:25:13;;;;;;;;;;;;;;;9.36;100.00;92727.72;2078429;28;20029;-82
2023/06/10 03:26:21;;;;;;;20.02;15.88;;;;;;;9.46;100.00;92732.78;2071819;28;19925;-83
2023/06/10 03:27:31;;;;;;;21.25;15.15;;;;;;;9.48;100.00;92733.13;2071298;28;20022;-82
2023/06/10 03:28:38;;;;;;;20.95;15.25;;;;;;;9.53;100.00;92729.94;2079392;28;20044;-81
2023/06/10 03:29:45;;;;;;;20.98;15.35;;;;;;;9.50;100.00;92730.78;2078939;28;20048;-83
2023/06/10 03:30:51;;;;;;;17.63;15.35;;;;;;;9.45;100.00;92738.53;2084050;28;20033;-82
2023/06/10 03:31:54;;;;;;;26.67;15.75;;;;;;;9.40;100.00;92731.03;2070687;28;20596;-83
2023/06/10 03:33:06;;;;;;;26.00;16.52;;;;;;;9.32;100.00;92730.44;2064920;28;20058;-80
2023/06/10 03:34:16;;;;;;;20.40;16.38;;;;;;;9.40;100.00;92736.38;2073607;28;20549;-80
2023/06/10 03:35:20;;;;;;;21.05;15.68;;;;;;;9.39;100.00;92734.84;2078651;28;20429;-82
2023/06/10 03:36:30;;;;;;;21.95;16.10;;;;;;;9.42;100.00;92731.38;2072882;28;20030;-81
2023/06/10 03:37:34;;;;;;;21.05;15.98;;;;;;;9.31;100.00;92734.28;2063203;28;20029;-81
2023/06/10 03:38:40;;;;;;;22.15;15.88;;;;;;;9.32;100.00;92733.88;2056915;28;20022;-81
2023/06/10 03:39:46;;;;;;;20.38;15.98;;;;;;;9.38;100.00;92736.03;2061036;28;20522;-82
2023/06/10 03:40:52;;;;;;;21.40;15.98;;;;;;;9.49;100.00;92737.28;2069753;28;20025;-80
2023/06/10 03:41:58;;;;;;;23.35;17.10;;;;;;;9.47;100.00;92739.59;2066030;28;20094;-84
2023/06/10 03:43:20;;;;;;;20.65;15.20;;;;;;;9.45;100.00;92735.88;2073993;28;20041;-79
2023/06/10 03:44:28;;;;;;;22.85;16.25;;;;;;;9.41;100.00;92737.88;2060448;28;20058;-82
2023/06/10 03:45:36;;;;;;;22.08;16.05;;;;;;;9.37;100.00;92742.53;2058352;28;20038;-80
2023/06/10 03:46:43;;;;;;;20.95;16.13;;;;;;;9.30;100.00;92738.09;2066307;28;20034;-79
2023/06/10 03:47:51;;;;;;;22.45;16.10;;;;;;;9.34;100.00;92736.09;2064495;28;20503;-81
2023/06/10 03:48:55;;;;;;;18.63;15.27;;;;;;;9.40;100.00;92733.72;2066664;28;20026;-82
2023/06/10 03:50:00;;;;;;;20.48;15.77;;;;;;;9.39;100.00;92745.53;2065315;28;20037;-82
2023/06/10 03:51:08;;;;;;;22.00;15.50;;;;;;;9.36;100.00;92736.47;2065408;28;20057;-81
2023/06/10 03:52:15;;;;;;;20.40;16.13;;;;;;;9.33;100.00;92739.94;2075880;28;20398;-81
2023/06/10 03:53:22;;;;;;;22.73;15.77;;;;;;;9.30;100.00;92743.44;2069585;28;20025;-84
2023/06/10 03:54:26;;;;;;;19.65;16.02;;;;;;;9.24;100.00;92729.84;2064360;28;20022;-81
2023/06/10 03:55:34;;;;;;;21.67;16.70;;;;;;;9.24;100.00;92737.09;2063136;28;20487;-79
2023/06/10 03:56:40;;;;;;;19.33;15.13;;;;;;;9.32;100.00;92735.78;2064296;28;20022;-81
2023/06/10 03:57:48;;;;;;;22.42;16.25;;;;;;;9.40;100.00;92736.38;2057830;28;20045;-82
2023/06/10 03:58:57;;;;;;;23.00;16.52;;;;;;;9.39;100.00;92740.19;2061356;28;20037;-82
2023/06/10 04:00:11;;;;;;;20.35;15.85;;;;;;;9.37;100.00;92737.94;2055790;28;20474;-80
2023/06/10 04:01:18;;;;;;;22.23;16.08;;;;;;;9.34;100.00;92738.78;2059704;28;20030;-82
2023/06/10 04:03:02;;;;;;;19.77;15.75;;;;;;;9.35;100.00;92742.97;2072642;28;20033;-81
2023/06/10 04:04:06;;;;;;;21.38;15.57;;;;;;;9.42;100.00;92742.03;2073190;28;20556;-81
2023/06/10 04:05:10;;;;;;;21.23;16.63;;;;;;;9.51;100.00;92740.28;2056957;28;20148;-80
2023/06/10 04:06:19;;;;;;;23.55;16.27;;;;;;;9.43;100.00;92744.28;2056503;28;20062;-81
2023/06/10 04:07:32;;;;;;;23.27;16.40;;;;;;;9.42;100.00;92740.13;2069597;28;20030;-80
2023/06/10 04:09:12;;;;;;;22.50;15.77;;;;;;;9.48;100.00;92743.03;2066114;28;20023;-81
2023/06/10 04:10:14;;;;;;;21.80;15.88;;;;;;;9.51;100.00;92742.94;2068880;28;20417;-85
2023/06/10 04:11:21;;;;;;;25.05;15.75;;;;;;;9.47;100.00;92744.19;2078096;28;20018;-82
2023/06/10 04:12:30;;;;;;;23.23;16.92;;;;;;;9.45;100.00;92746.53;2076769;28;20030;-82
2023/06/10 04:13:40;;;;;;;21.27;16.05;;;;;;;9.44;100.00;92747.69;2060147;28;20027;-79
2023/06/10 04:14:46;;;;;;;20.50;15.95;;;;;;;9.46;100.00;92740.78;2052052;28;20516;-80
2023/06/10 04:16:18;;;;;;;24.27;16.88;;;;;;;9.47;100.00;92741.53;2052156;28;20034;-83
2023/06/10 04:17:24;;;;;;;26.45;17.73;;;;;;;9.48;100.00;92740.34;2058762;28;20468;-80
2023/06/10 04:18:30;;;;;;;23.80;17.23;;;;;;;9.53;100.00;92745.97;2058915;28;20027;-83
2023/06/10 04:20:01;;;;;;;23.83;15.88;;;;;;;9.53;100.00;92743.28;2067476;28;20423;-83
2023/06/10 04:21:07;;;;;;;23.88;17.13;;;;;;;9.56;100.00;92744.34;2062331;28;20153;-81
2023/06/10 04:22:17;;;;;;;23.75;16.10;;;;;;;9.58;100.00;92742.78;2057029;28;20034;-82
2023/06/10 04:23:20;;;;;;;23.25;16.80;;;;;;;9.64;100.00;92750.28;2069027;28;20113;-80
2023/06/10 04:24:27;;;;;;;23.80;17.35;;;;;;;9.65;100.00;92743.78;2072621;28;20034;-82
2023/06/10 04:25:36;;;;;;;24.55;17.48;;;;;;;9.66;100.00;92746.03;2079119;28;20934;-81
2023/06/10 04:26:45;;;;;;;18.98;15.90;;;;;;;9.67;100.00;92749.44;2065504;28;20375;-80
2023/06/10 04:27:54;;;;;;;20.73;17.15;;;;;;;9.69;100.00;92752.44;2063469;28;20598;-83
2023/06/10 04:29:00;;;;;;;24.52;17.60;;;;;;;9.72;100.00;92747.03;2064821;28;20037;-83
2023/06/10 04:30:10;;;;;;;24.23;16.92;;;;;;;9.76;100.00;92745.03;2065156;28;20415;-80
2023/06/10 04:31:43;;;;;;;24.98;17.63;;;;;;;9.75;100.00;92751.53;2067839;28;20034;-83
2023/06/10 04:32:52;;;;;;;22.80;17.20;;;;;;;9.74;100.00;92749.25;2067025;28;20037;-81
2023/06/10 04:34:00;;;;;;;22.67;17.30;;;;;;;9.81;100.00;92749.09;2065281;28;20049;-82
2023/06/10 04:35:06;;;;;;;25.73;18.98;;;;;;;9.80;100.00;92752.94;2064840;28;20422;-83
2023/06/10 04:36:10;;;;;;;23.63;18.25;;;;;;;9.83;100.00;92742.19;2058109;28;20041;-81
2023/06/10 04:37:12;;;;;;;25.02;17.25;;;;;;;9.89;100.00;92755.75;2072524;28;20036;-81
2023/06/10 04:38:19;;;;;;;26.13;18.17;;;;;;;9.93;100.00;92751.09;2064566;28;20033;-83
2023/06/10 04:39:24;;;;;;;29.25;17.70;;;;;;;9.96;100.00;92755.56;2063440;28;20609;-82
2023/06/10 04:40:31;;;;;;;25.20;17.92;;;;;;;9.96;100.00;92749.47;2057269;28;20616;-81
2023/06/10 04:41:38;;;;;;;25.08;18.35;;;;;;;10.03;100.00;92760.75;2057022;28;20121;-80
2023/06/10 04:42:42;;;;;;;22.35;16.77;;;;;;;10.05;100.00;92760.31;2057934;28;20023;-81
2023/06/10 04:43:49;;;;;;;21.70;17.77;;;;;;;10.12;100.00;92764.72;2064529;28;20030;-82
2023/06/10 04:44:57;;;;;;;23.75;18.52;;;;;;;10.15;100.00;92766.56;2057058;28;20042;-80
2023/06/10 04:46:02;;;;;;;23.73;18.30;;;;;;;10.22;100.00;92766.38;2062232;28;20058;-82
2023/06/10 04:47:07;;;;;;;28.65;20.40;;;;;;;10.27;100.00;92757.88;2057885;28;20039;-79
2023/06/10 04:48:17;;;;;;;27.88;18.90;;;;;;;10.27;100.00;92769.31;2058913;28;20049;-80
2023/06/10 04:49:25;;;;;;;30.92;19.50;;;;;;;10.29;100.00;92760.88;2069833;28;20104;-80
2023/06/10 04:50:32;;;;;;;25.55;19.35;;;;;;;10.35;100.00;92764.53;2079675;28;20600;-83
2023/06/10 04:51:40;;;;;;;26.40;18.60;;;;;;;10.38;100.00;92753.00;2072306;28;20030;-80
2023/06/10 04:52:48;;;;;;;27.27;19.98;;;;;;;10.44;100.00;92756.63;2071415;28;20064;-82
2023/06/10 04:53:52;;;;;;;26.20;18.67;;;;;;;10.44;100.00;92759.31;2065844;28;20037;-81
2023/06/10 04:54:58;;;;;;;27.98;20.00;;;;;;;10.48;100.00;92756.56;2064988;28;20034;-83
2023/06/10 04:56:07;;;;;;;37.83;21.55;;;;;;;10.56;100.00;92747.16;2064180;28;20038;-84
2023/06/10 04:57:11;;;;;;;30.15;20.35;;;;;;;10.66;100.00;92753.38;2064371;28;20034;-79
2023/06/10 04:58:12;;;;;;;22.73;19.05;;;;;;;10.62;100.00;92752.72;2063837;28;20610;-82
2023/06/10 04:59:14;;;;;;;28.08;19.85;;;;;;;10.69;100.00;92758.63;2063158;28;20034;-79
2023/06/10 05:00:15;;;;;;;25.67;19.13;;;;;;;10.72;100.00;92754.38;2063929;28;20118;-84
2023/06/10 05:01:17;;;;;;;31.42;21.40;;;;;;;10.80;100.00;92764.44;2070897;28;20077;-81
2023/06/10 05:02:18;;;;;;;32.33;21.05;;;;;;;10.84;100.00;92761.66;2072762;28;20073;-82
2023/06/10 05:03:20;;;;;;;44.13;22.80;;;;;;;10.92;100.00;92754.19;2064056;28;20427;-81
2023/06/10 05:04:21;;;;;;;39.65;26.60;;;;;;;11.00;100.00;92761.56;2047712;28;20058;-83
2023/06/10 05:05:22;;;;;;;43.92;28.60;;;;;;;11.05;100.00;92754.94;2055812;28;20066;-82
2023/06/10 05:06:23;;;;;;;34.60;23.98;;;;;;;11.10;100.00;92752.47;2071153;28;20129;-84
2023/06/10 05:07:25;;;;;;;35.05;22.50;;;;;;;11.16;100.00;92758.06;2063232;28;20483;-80
2023/06/10 05:08:26;;;;;;;47.08;28.80;;;;;;;11.21;100.00;92760.19;2062094;28;20058;-81
2023/06/10 05:09:27;;;;;;;43.72;28.02;;;;;;;11.30;100.00;92764.91;2069747;28;20029;-82
2023/06/10 05:10:31;;;;;;;38.40;24.45;;;;;;;11.48;100.00;92757.09;2068362;28;20033;-80
2023/06/10 05:11:32;;;;;;;37.53;22.80;;;;;;;11.54;100.00;92754.59;2074310;28;20121;-82
2023/06/10 05:12:33;;;;;;;33.63;22.52;;;;;;;11.66;100.00;92763.81;2071689;28;20477;-80
2023/06/10 05:13:34;;;;;;;30.90;22.10;;;;;;;11.87;100.00;92757.06;2063658;28;20026;-83
2023/06/10 05:14:35;;;;;;;29.45;21.85;;;;;;;11.89;100.00;92760.78;2071043;28;20037;-85
2023/06/10 05:15:37;;;;;;;31.30;22.55;;;;;;;11.87;100.00;92755.13;2072116;28;20040;-81
2023/06/10 05:16:38;;;;;;;29.45;21.73;;;;;;;11.96;100.00;92759.81;2071875;28;20112;-82
2023/06/10 05:17:39;;;;;;;34.00;22.05;;;;;;;12.09;100.00;92755.19;2063465;28;20037;-81
2023/06/10 05:18:40;;;;;;;33.95;21.55;;;;;;;12.28;100.00;92772.88;2059860;28;20497;-82
2023/06/10 05:19:43;;;;;;;29.58;20.80;;;;;;;12.43;100.00;92765.13;2063737;28;20033;-84
2023/06/10 05:20:44;;;;;;;30.70;20.55;;;;;;;12.50;100.00;92770.22;2067385;28;20034;-82
2023/06/10 05:21:45;;;;;;;30.15;21.40;;;;;;;12.58;100.00;92760.75;2059680;28;20055;-82
2023/06/10 05:22:46;;;;;;;33.22;20.85;;;;;;;12.72;100.00;92756.81;2047408;28;20106;-84
2023/06/10 05:23:47;;;;;;;31.45;20.02;;;;;;;12.76;100.00;92757.44;2055603;28;20030;-81
2023/06/10 05:24:48;;;;;;;26.70;20.52;;;;;;;12.91;100.00;92763.06;2053010;28;20034;-81
2023/06/10 05:25:49;;;;;;;28.70;19.23;;;;;;;12.95;100.00;92758.31;2047164;28;20042;-81
2023/06/10 05:26:50;;;;;;;25.73;19.08;;;;;;;12.98;100.00;92759.34;2063673;28;20034;-81
2023/06/10 05:27:51;;;;;;;26.50;20.27;;;;;;;13.11;100.00;92757.34;2063088;28;20038;-83
2023/06/10 05:28:52;;;;;;;27.23;19.30;;;;;;;13.18;100.00;92756.34;2047716;28;20416;-82
2023/06/10 05:29:53;;;;;;;24.77;17.88;;;;;;;13.62;100.00;92758.91;2055292;28;20039;-81